ANA620 RJFK-RJTT
Flight info
| Callsign | ANA620 |
|---|---|
| Flight time | N/A |
| Altitude | 36000 |
| Route | MIDAI3 MIDAI M750 BILLY Y21 AKSEL AKSEL1K |
| Aircraft | A321/M-SDE3FGHIRWY/LB1 |
Departure
| Time | 2026-04-22 14:25 |
|---|---|
| Airport | Kagoshima Airport (RJFK) |
Arrival
| Time | N/A |
|---|---|
| Airport | Tokyo Haneda International Airport (RJTT) |
| Time | Latitude | Longitude | Altitude | Speed | Heading |
|---|---|---|---|---|---|
| 2026-04-22 13:54 | 31.80218 | 130.71634 | 905 ft | 0 kts | 239° |
| 2026-04-22 14:12 | 31.80222 | 130.71642 | 903 ft | 3 kts | 239° |
| 2026-04-22 14:13 | 31.80232 | 130.71662 | 902 ft | 3 kts | 239° |
| 2026-04-22 14:13 | 31.80242 | 130.71682 | 906 ft | 3 kts | 243° |
| 2026-04-22 14:13 | 31.80250 | 130.71704 | 905 ft | 3 kts | 262° |
| 2026-04-22 14:13 | 31.80250 | 130.71727 | 905 ft | 3 kts | 283° |
| 2026-04-22 14:14 | 31.80245 | 130.71744 | 905 ft | 1 kts | 297° |
| 2026-04-22 14:14 | 31.80245 | 130.71745 | 905 ft | 1 kts | 298° |
| 2026-04-22 14:15 | 31.80249 | 130.71742 | 905 ft | 2 kts | 325° |
| 2026-04-22 14:15 | 31.80289 | 130.71736 | 906 ft | 8 kts | 350° |
| 2026-04-22 14:16 | 31.80338 | 130.71706 | 906 ft | 7 kts | 334° |
| 2026-04-22 14:16 | 31.80380 | 130.71678 | 905 ft | 7 kts | 330° |
| 2026-04-22 14:16 | 31.80468 | 130.71618 | 905 ft | 22 kts | 329° |
| 2026-04-22 14:16 | 31.80604 | 130.71521 | 906 ft | 22 kts | 328° |
| 2026-04-22 14:17 | 31.80721 | 130.71452 | 908 ft | 14 kts | 331° |
| 2026-04-22 14:17 | 31.80772 | 130.71418 | 910 ft | 6 kts | 330° |
| 2026-04-22 14:17 | 31.80796 | 130.71401 | 911 ft | 2 kts | 329° |
| 2026-04-22 14:17 | 31.80802 | 130.71397 | 911 ft | 4 kts | 329° |
| 2026-04-22 14:18 | 31.80848 | 130.71366 | 912 ft | 9 kts | 329° |
| 2026-04-22 14:18 | 31.80908 | 130.71324 | 913 ft | 13 kts | 330° |
| 2026-04-22 14:18 | 31.80978 | 130.71276 | 914 ft | 10 kts | 329° |
| 2026-04-22 14:18 | 31.81030 | 130.71241 | 916 ft | 8 kts | 330° |
| 2026-04-22 14:19 | 31.81092 | 130.71198 | 917 ft | 13 kts | 330° |
| 2026-04-22 14:19 | 31.81175 | 130.71142 | 917 ft | 14 kts | 330° |
| 2026-04-22 14:19 | 31.81255 | 130.71088 | 917 ft | 13 kts | 330° |
| 2026-04-22 14:19 | 31.81326 | 130.71040 | 917 ft | 11 kts | 329° |
| 2026-04-22 14:20 | 31.81404 | 130.70993 | 915 ft | 4 kts | 349° |
| 2026-04-22 14:20 | 31.81438 | 130.71000 | 913 ft | 6 kts | 25° |
| 2026-04-22 14:20 | 31.81468 | 130.71033 | 912 ft | 6 kts | 54° |
| 2026-04-22 14:21 | 31.81479 | 130.71052 | 912 ft | 0 kts | 59° |
| 2026-04-22 14:22 | 31.81475 | 130.71140 | 914 ft | 6 kts | 98° |
| 2026-04-22 14:23 | 31.81450 | 130.71187 | 914 ft | 6 kts | 149° |
| 2026-04-22 14:23 | 31.81449 | 130.71188 | 915 ft | 0 kts | 149° |
| 2026-04-22 14:24 | 31.81356 | 130.71252 | 914 ft | 45 kts | 149° |
| 2026-04-22 14:24 | 31.80894 | 130.71563 | 913 ft | 107 kts | 150° |
| 2026-04-22 14:24 | 31.80085 | 130.72110 | 915 ft | 159 kts | 150° |
| 2026-04-22 14:24 | 31.79022 | 130.72784 | 1164 ft | 179 kts | 154° |
| 2026-04-22 14:25 | 31.77875 | 130.73321 | 1792 ft | 179 kts | 163° |
| 2026-04-22 14:25 | 31.76682 | 130.73749 | 2281 ft | 184 kts | 163° |
| 2026-04-22 14:25 | 31.75397 | 130.74121 | 2631 ft | 189 kts | 171° |
| 2026-04-22 14:25 | 31.74099 | 130.74472 | 3091 ft | 193 kts | 164° |
| 2026-04-22 14:26 | 31.72830 | 130.74943 | 3566 ft | 194 kts | 162° |
| 2026-04-22 14:26 | 31.71549 | 130.75446 | 4043 ft | 195 kts | 162° |
| 2026-04-22 14:26 | 31.70245 | 130.75956 | 4462 ft | 201 kts | 162° |
| 2026-04-22 14:26 | 31.68893 | 130.76476 | 4850 ft | 208 kts | 162° |
| 2026-04-22 14:27 | 31.67490 | 130.77005 | 5236 ft | 216 kts | 163° |
| 2026-04-22 14:27 | 31.66012 | 130.77558 | 5467 ft | 234 kts | 163° |
| 2026-04-22 14:27 | 31.64438 | 130.78312 | 5640 ft | 257 kts | 148° |
| 2026-04-22 14:27 | 31.63055 | 130.79750 | 5927 ft | 275 kts | 127° |
| 2026-04-22 14:28 | 31.62172 | 130.81733 | 6482 ft | 282 kts | 107° |
| 2026-04-22 14:28 | 31.61911 | 130.84017 | 7093 ft | 286 kts | 91° |
| 2026-04-22 14:28 | 31.61859 | 130.86363 | 7715 ft | 289 kts | 92° |
| 2026-04-22 14:28 | 31.61804 | 130.88729 | 8318 ft | 292 kts | 92° |
| 2026-04-22 14:29 | 31.61747 | 130.91121 | 8898 ft | 295 kts | 92° |
| 2026-04-22 14:29 | 31.61689 | 130.93536 | 9456 ft | 298 kts | 92° |
| 2026-04-22 14:29 | 31.61631 | 130.95940 | 9983 ft | 300 kts | 92° |
| 2026-04-22 14:29 | 31.61569 | 130.98427 | 10271 ft | 313 kts | 92° |
| 2026-04-22 14:30 | 31.61505 | 131.01046 | 10403 ft | 329 kts | 92° |
| 2026-04-22 14:30 | 31.61438 | 131.03794 | 10531 ft | 345 kts | 92° |
| 2026-04-22 14:30 | 31.61310 | 131.09077 | 11071 ft | 360 kts | 92° |
| 2026-04-22 14:31 | 31.61241 | 131.12027 | 11516 ft | 363 kts | 92° |
| 2026-04-22 14:31 | 31.61168 | 131.14983 | 11965 ft | 366 kts | 92° |
| 2026-04-22 14:31 | 31.61090 | 131.17980 | 12391 ft | 369 kts | 92° |
| 2026-04-22 14:31 | 31.61011 | 131.21003 | 12808 ft | 372 kts | 92° |
| 2026-04-22 14:32 | 31.60933 | 131.24036 | 13209 ft | 374 kts | 92° |
| 2026-04-22 14:32 | 31.60853 | 131.27100 | 13607 ft | 377 kts | 92° |
| 2026-04-22 14:32 | 31.60771 | 131.30142 | 13980 ft | 379 kts | 92° |
| 2026-04-22 14:32 | 31.60701 | 131.33244 | 14348 ft | 382 kts | 89° |
| 2026-04-22 14:33 | 31.61005 | 131.36348 | 14699 ft | 384 kts | 77° |
| 2026-04-22 14:33 | 31.61855 | 131.39327 | 15039 ft | 387 kts | 65° |
| 2026-04-22 14:33 | 31.63181 | 131.42084 | 15371 ft | 389 kts | 58° |
| 2026-04-22 14:33 | 31.64591 | 131.44803 | 15700 ft | 392 kts | 59° |
| 2026-04-22 14:34 | 31.66002 | 131.47547 | 16017 ft | 394 kts | 59° |
| 2026-04-22 14:34 | 31.67396 | 131.50275 | 16315 ft | 396 kts | 59° |
| 2026-04-22 14:34 | 31.68811 | 131.53056 | 16607 ft | 398 kts | 59° |
| 2026-04-22 14:34 | 31.70230 | 131.55848 | 16885 ft | 400 kts | 59° |
| 2026-04-22 14:35 | 31.71659 | 131.58656 | 17154 ft | 401 kts | 59° |
| 2026-04-22 14:35 | 31.73098 | 131.61478 | 17409 ft | 403 kts | 59° |
| 2026-04-22 14:35 | 31.74542 | 131.64306 | 17653 ft | 405 kts | 59° |
| 2026-04-22 14:35 | 31.75991 | 131.67145 | 17889 ft | 407 kts | 59° |
| 2026-04-22 14:36 | 31.77428 | 131.69969 | 18113 ft | 408 kts | 59° |
| 2026-04-22 14:36 | 31.78886 | 131.72837 | 18331 ft | 410 kts | 59° |
| 2026-04-22 14:36 | 31.80349 | 131.75720 | 18540 ft | 411 kts | 59° |
| 2026-04-22 14:36 | 31.81815 | 131.78610 | 18740 ft | 413 kts | 59° |
| 2026-04-22 14:37 | 31.83286 | 131.81515 | 18933 ft | 414 kts | 59° |
| 2026-04-22 14:37 | 31.84762 | 131.84435 | 19121 ft | 415 kts | 59° |
| 2026-04-22 14:37 | 31.86239 | 131.87354 | 19294 ft | 417 kts | 59° |
| 2026-04-22 14:37 | 31.87726 | 131.90288 | 19464 ft | 418 kts | 59° |
| 2026-04-22 14:38 | 31.89214 | 131.93227 | 19626 ft | 419 kts | 59° |
| 2026-04-22 14:38 | 31.90708 | 131.96179 | 19784 ft | 420 kts | 59° |
| 2026-04-22 14:38 | 31.92184 | 131.99098 | 19929 ft | 421 kts | 59° |
| 2026-04-22 14:38 | 31.93684 | 132.02070 | 20071 ft | 422 kts | 59° |
| 2026-04-22 14:39 | 31.95185 | 132.05046 | 20214 ft | 423 kts | 59° |
| 2026-04-22 14:39 | 31.96691 | 132.08036 | 20351 ft | 424 kts | 59° |
| 2026-04-22 14:39 | 31.98199 | 132.11026 | 20480 ft | 425 kts | 59° |
| 2026-04-22 14:40 | 32.01219 | 132.17031 | 20738 ft | 427 kts | 59° |
| 2026-04-22 14:40 | 32.02732 | 132.20051 | 20864 ft | 428 kts | 59° |
| 2026-04-22 14:40 | 32.04225 | 132.23030 | 20988 ft | 428 kts | 59° |
| 2026-04-22 14:40 | 32.05743 | 132.26063 | 21115 ft | 429 kts | 59° |
| 2026-04-22 14:41 | 32.07255 | 132.29088 | 21239 ft | 429 kts | 59° |
| 2026-04-22 14:41 | 32.08772 | 132.32120 | 21365 ft | 430 kts | 59° |
| 2026-04-22 14:41 | 32.10294 | 132.35163 | 21490 ft | 430 kts | 59° |
| 2026-04-22 14:41 | 32.11801 | 132.38185 | 21630 ft | 430 kts | 59° |
| 2026-04-22 14:42 | 32.13284 | 132.41244 | 22200 ft | 425 kts | 61° |
| 2026-04-22 14:42 | 32.14653 | 132.44297 | 22944 ft | 419 kts | 62° |
| 2026-04-22 14:42 | 32.15967 | 132.47402 | 23231 ft | 425 kts | 63° |
| 2026-04-22 14:42 | 32.17234 | 132.50494 | 23553 ft | 424 kts | 64° |
| 2026-04-22 14:43 | 32.18510 | 132.53626 | 23669 ft | 423 kts | 64° |
| 2026-04-22 14:43 | 32.19797 | 132.56755 | 23794 ft | 422 kts | 64° |
| 2026-04-22 14:43 | 32.21090 | 132.59857 | 23918 ft | 422 kts | 64° |
| 2026-04-22 14:43 | 32.22399 | 132.62957 | 24042 ft | 421 kts | 63° |
| 2026-04-22 14:44 | 32.23713 | 132.66047 | 24168 ft | 420 kts | 63° |
| 2026-04-22 14:44 | 32.25015 | 132.69109 | 24291 ft | 419 kts | 63° |
| 2026-04-22 14:44 | 32.26318 | 132.72186 | 24415 ft | 418 kts | 64° |
| 2026-04-22 14:44 | 32.27616 | 132.75264 | 24540 ft | 418 kts | 64° |
| 2026-04-22 14:45 | 32.28895 | 132.78294 | 24664 ft | 417 kts | 64° |
| 2026-04-22 14:45 | 32.29929 | 132.80749 | 24764 ft | 416 kts | 64° |
| 2026-04-22 14:45 | 32.31214 | 132.83807 | 24889 ft | 415 kts | 64° |
| 2026-04-22 14:45 | 32.32496 | 132.86859 | 25013 ft | 414 kts | 64° |
| 2026-04-22 14:46 | 32.33773 | 132.89902 | 25138 ft | 413 kts | 64° |
| 2026-04-22 14:46 | 32.35046 | 132.92942 | 25263 ft | 412 kts | 64° |
| 2026-04-22 14:46 | 32.36311 | 132.95970 | 25388 ft | 411 kts | 64° |
| 2026-04-22 14:46 | 32.37578 | 132.99007 | 25513 ft | 410 kts | 64° |
| 2026-04-22 14:47 | 32.38838 | 133.02022 | 25637 ft | 409 kts | 64° |
| 2026-04-22 14:47 | 32.40083 | 133.04991 | 25761 ft | 408 kts | 64° |
| 2026-04-22 14:47 | 32.41344 | 133.08000 | 25886 ft | 407 kts | 64° |
| 2026-04-22 14:47 | 32.42596 | 133.10996 | 26010 ft | 406 kts | 64° |
| 2026-04-22 14:48 | 32.43845 | 133.13989 | 26135 ft | 405 kts | 64° |
| 2026-04-22 14:48 | 32.45090 | 133.16978 | 26260 ft | 404 kts | 64° |
| 2026-04-22 14:48 | 32.46330 | 133.19957 | 26385 ft | 403 kts | 64° |
| 2026-04-22 14:48 | 32.47568 | 133.22929 | 26509 ft | 402 kts | 64° |
| 2026-04-22 14:49 | 32.48787 | 133.25862 | 26633 ft | 401 kts | 64° |
| 2026-04-22 14:49 | 32.50017 | 133.28822 | 26757 ft | 400 kts | 64° |
| 2026-04-22 14:49 | 32.51241 | 133.31771 | 26882 ft | 399 kts | 64° |
| 2026-04-22 14:49 | 32.52467 | 133.34730 | 27007 ft | 398 kts | 64° |
| 2026-04-22 14:50 | 32.53684 | 133.37675 | 27132 ft | 397 kts | 64° |
| 2026-04-22 14:50 | 32.54896 | 133.40611 | 27256 ft | 396 kts | 64° |
| 2026-04-22 14:50 | 32.56102 | 133.43532 | 27381 ft | 395 kts | 64° |
| 2026-04-22 14:50 | 32.57304 | 133.46447 | 27505 ft | 395 kts | 64° |
| 2026-04-22 14:51 | 32.58507 | 133.49370 | 27630 ft | 394 kts | 64° |
| 2026-04-22 14:51 | 32.59712 | 133.52290 | 27755 ft | 393 kts | 64° |
| 2026-04-22 14:51 | 32.60893 | 133.55154 | 27878 ft | 391 kts | 64° |
| 2026-04-22 14:51 | 32.62081 | 133.58043 | 28002 ft | 390 kts | 64° |
| 2026-04-22 14:52 | 32.63264 | 133.60918 | 28126 ft | 389 kts | 64° |
| 2026-04-22 14:52 | 32.64410 | 133.63702 | 28246 ft | 388 kts | 64° |
| 2026-04-22 14:52 | 32.65626 | 133.66662 | 28375 ft | 386 kts | 64° |
| 2026-04-22 14:52 | 32.66798 | 133.69524 | 28499 ft | 385 kts | 64° |
| 2026-04-22 14:53 | 32.67967 | 133.72385 | 28624 ft | 384 kts | 64° |
| 2026-04-22 14:53 | 32.69116 | 133.75188 | 28747 ft | 382 kts | 64° |
| 2026-04-22 14:53 | 32.70279 | 133.78017 | 28871 ft | 381 kts | 64° |
| 2026-04-22 14:53 | 32.71438 | 133.80832 | 28996 ft | 379 kts | 64° |
| 2026-04-22 14:54 | 32.72591 | 133.83642 | 29120 ft | 377 kts | 64° |
| 2026-04-22 14:54 | 32.73734 | 133.86438 | 29244 ft | 375 kts | 64° |
| 2026-04-22 14:54 | 32.74870 | 133.89218 | 29368 ft | 373 kts | 64° |
| 2026-04-22 14:54 | 32.76002 | 133.91990 | 29493 ft | 371 kts | 64° |
| 2026-04-22 14:55 | 32.77123 | 133.94740 | 29617 ft | 369 kts | 64° |
| 2026-04-22 14:55 | 32.78223 | 133.97442 | 29739 ft | 367 kts | 64° |
| 2026-04-22 14:55 | 32.79327 | 134.00162 | 29863 ft | 364 kts | 64° |
| 2026-04-22 14:55 | 32.80424 | 134.02868 | 29988 ft | 361 kts | 64° |
| 2026-04-22 14:56 | 32.81507 | 134.05536 | 30111 ft | 358 kts | 65° |
| 2026-04-22 14:56 | 32.82452 | 134.08259 | 30234 ft | 354 kts | 72° |
| 2026-04-22 14:56 | 32.83176 | 134.11062 | 29953 ft | 365 kts | 73° |
| 2026-04-22 14:56 | 32.83917 | 134.14032 | 29421 ft | 382 kts | 73° |
| 2026-04-22 14:57 | 32.84682 | 134.17104 | 29173 ft | 391 kts | 73° |
| 2026-04-22 14:57 | 32.85446 | 134.20174 | 29121 ft | 394 kts | 73° |
| 2026-04-22 14:57 | 32.87009 | 134.26445 | 29118 ft | 398 kts | 73° |
| 2026-04-22 14:58 | 32.88581 | 134.32787 | 29115 ft | 401 kts | 74° |
| 2026-04-22 14:58 | 32.90170 | 134.39175 | 29115 ft | 404 kts | 73° |
| 2026-04-22 14:59 | 32.91756 | 134.45558 | 29116 ft | 407 kts | 73° |
| 2026-04-22 14:59 | 32.93353 | 134.52022 | 29116 ft | 409 kts | 74° |
| 2026-04-22 15:00 | 32.94953 | 134.58541 | 29116 ft | 411 kts | 74° |
| 2026-04-22 15:00 | 32.96560 | 134.65077 | 29117 ft | 413 kts | 74° |
| 2026-04-22 15:01 | 32.98164 | 134.71605 | 29117 ft | 414 kts | 74° |
| 2026-04-22 15:01 | 32.99782 | 134.78219 | 29117 ft | 416 kts | 74° |
| 2026-04-22 15:02 | 33.01387 | 134.84821 | 29117 ft | 417 kts | 74° |
| 2026-04-22 15:02 | 33.03004 | 134.91469 | 29118 ft | 418 kts | 74° |
| 2026-04-22 15:03 | 33.04620 | 134.98140 | 29118 ft | 420 kts | 74° |
| 2026-04-22 15:03 | 33.06227 | 135.04790 | 29118 ft | 421 kts | 74° |
| 2026-04-22 15:04 | 33.07855 | 135.11506 | 29118 ft | 422 kts | 74° |
| 2026-04-22 15:04 | 33.09477 | 135.18226 | 29118 ft | 423 kts | 74° |
| 2026-04-22 15:05 | 33.11059 | 135.24985 | 29118 ft | 424 kts | 75° |
| 2026-04-22 15:05 | 33.12559 | 135.31823 | 29120 ft | 434 kts | 75° |
| 2026-04-22 15:06 | 33.14063 | 135.38760 | 29115 ft | 435 kts | 75° |
| 2026-04-22 15:06 | 33.14679 | 135.41565 | 29115 ft | 435 kts | 75° |